sensor_id;sensor_type;location;lat;lon;timestamp;temperature;humidity
70826;SHT31;58446;41.490;22.098;2023-09-12T00:00:48;21.84;45.00
70826;SHT31;58446;41.490;22.098;2023-09-12T00:03:14;22.00;45.11
70826;SHT31;58446;41.490;22.098;2023-09-12T00:05:40;21.67;45.18
70826;SHT31;58446;41.490;22.098;2023-09-12T00:08:06;21.39;46.01
70826;SHT31;58446;41.490;22.098;2023-09-12T00:10:32;21.03;46.42
70826;SHT31;58446;41.490;22.098;2023-09-12T00:12:58;20.68;47.81
70826;SHT31;58446;41.490;22.098;2023-09-12T00:15:28;21.28;46.97
70826;SHT31;58446;41.490;22.098;2023-09-12T00:17:53;21.61;46.47
70826;SHT31;58446;41.490;22.098;2023-09-12T00:20:19;21.93;46.04
70826;SHT31;58446;41.490;22.098;2023-09-12T00:22:45;22.00;46.00
70826;SHT31;58446;41.490;22.098;2023-09-12T00:25:11;22.09;45.98
70826;SHT31;58446;41.490;22.098;2023-09-12T00:27:37;22.04;46.27
70826;SHT31;58446;41.490;22.098;2023-09-12T00:30:03;21.97;46.49
70826;SHT31;58446;41.490;22.098;2023-09-12T00:32:28;21.90;46.99
70826;SHT31;58446;41.490;22.098;2023-09-12T00:34:54;21.73;47.79
70826;SHT31;58446;41.490;22.098;2023-09-12T00:37:20;21.69;47.90
70826;SHT31;58446;41.490;22.098;2023-09-12T00:39:45;21.84;47.89
70826;SHT31;58446;41.490;22.098;2023-09-12T00:42:12;21.73;48.93
70826;SHT31;58446;41.490;22.098;2023-09-12T00:44:38;21.74;49.01
70826;SHT31;58446;41.490;22.098;2023-09-12T00:47:04;21.83;49.09
70826;SHT31;58446;41.490;22.098;2023-09-12T00:49:30;21.97;48.87
70826;SHT31;58446;41.490;22.098;2023-09-12T00:51:57;21.59;50.55
70826;SHT31;58446;41.490;22.098;2023-09-12T00:54:23;21.63;50.13
70826;SHT31;58446;41.490;22.098;2023-09-12T00:56:49;21.16;52.49
70826;SHT31;58446;41.490;22.098;2023-09-12T00:59:17;20.79;52.83
70826;SHT31;58446;41.490;22.098;2023-09-12T01:01:43;21.09;51.98
70826;SHT31;58446;41.490;22.098;2023-09-12T01:04:10;21.30;51.54
70826;SHT31;58446;41.490;22.098;2023-09-12T01:06:36;21.20;51.60
70826;SHT31;58446;41.490;22.098;2023-09-12T01:09:02;21.18;51.76
70826;SHT31;58446;41.490;22.098;2023-09-12T01:11:28;21.36;51.16
70826;SHT31;58446;41.490;22.098;2023-09-12T01:13:54;21.36;49.48
70826;SHT31;58446;41.490;22.098;2023-09-12T01:16:20;21.67;49.56
70826;SHT31;58446;41.490;22.098;2023-09-12T01:18:46;21.69;49.20
70826;SHT31;58446;41.490;22.098;2023-09-12T01:29:12;21.81;49.72
70826;SHT31;58446;41.490;22.098;2023-09-12T01:31:39;21.80;49.79
70826;SHT31;58446;41.490;22.098;2023-09-12T01:34:09;21.47;50.62
70826;SHT31;58446;41.490;22.098;2023-09-12T01:36:36;21.39;50.98
70826;SHT31;58446;41.490;22.098;2023-09-12T01:39:02;21.46;50.81
70826;SHT31;58446;41.490;22.098;2023-09-12T01:41:29;21.54;50.78
70826;SHT31;58446;41.490;22.098;2023-09-12T01:43:57;21.26;51.58
70826;SHT31;58446;41.490;22.098;2023-09-12T01:46:25;21.19;51.89
70826;SHT31;58446;41.490;22.098;2023-09-12T01:48:53;21.09;52.26
70826;SHT31;58446;41.490;22.098;2023-09-12T01:51:22;21.20;51.90
70826;SHT31;58446;41.490;22.098;2023-09-12T01:53:49;20.88;52.56
70826;SHT31;58446;41.490;22.098;2023-09-12T01:56:15;20.51;53.17
70826;SHT31;58446;41.490;22.098;2023-09-12T01:58:41;20.37;53.61
70826;SHT31;58446;41.490;22.098;2023-09-12T02:01:07;20.82;52.43
70826;SHT31;58446;41.490;22.098;2023-09-12T02:03:32;20.74;52.31
70826;SHT31;58446;41.490;22.098;2023-09-12T02:05:58;20.74;52.15
70826;SHT31;58446;41.490;22.098;2023-09-12T02:08:24;20.37;53.19
70826;SHT31;58446;41.490;22.098;2023-09-12T02:10:49;20.41;52.83
70826;SHT31;58446;41.490;22.098;2023-09-12T02:13:15;20.84;52.06
70826;SHT31;58446;41.490;22.098;2023-09-12T02:15:41;20.94;51.73
70826;SHT31;58446;41.490;22.098;2023-09-12T02:18:06;20.63;52.40
70826;SHT31;58446;41.490;22.098;2023-09-12T02:20:32;20.48;52.81
70826;SHT31;58446;41.490;22.098;2023-09-12T02:22:58;20.52;52.53
70826;SHT31;58446;41.490;22.098;2023-09-12T02:25:23;20.65;51.87
70826;SHT31;58446;41.490;22.098;2023-09-12T02:27:49;20.55;52.26
70826;SHT31;58446;41.490;22.098;2023-09-12T02:30:15;20.55;52.13
70826;SHT31;58446;41.490;22.098;2023-09-12T02:32:42;20.55;52.05
70826;SHT31;58446;41.490;22.098;2023-09-12T02:35:08;20.64;51.62
70826;SHT31;58446;41.490;22.098;2023-09-12T02:37:34;20.72;51.01
70826;SHT31;58446;41.490;22.098;2023-09-12T02:40:00;20.67;50.78
70826;SHT31;58446;41.490;22.098;2023-09-12T02:42:26;20.74;50.37
70826;SHT31;58446;41.490;22.098;2023-09-12T02:44:51;20.71;50.37
70826;SHT31;58446;41.490;22.098;2023-09-12T02:47:17;20.58;50.20
70826;SHT31;58446;41.490;22.098;2023-09-12T02:49:43;20.69;50.15
70826;SHT31;58446;41.490;22.098;2023-09-12T02:52:09;20.65;49.94
70826;SHT31;58446;41.490;22.098;2023-09-12T02:54:34;20.47;50.37
70826;SHT31;58446;41.490;22.098;2023-09-12T02:57:00;20.38;50.41
70826;SHT31;58446;41.490;22.098;2023-09-12T02:59:26;20.63;49.92
70826;SHT31;58446;41.490;22.098;2023-09-12T03:01:51;20.72;49.62
70826;SHT31;58446;41.490;22.098;2023-09-12T03:04:17;20.45;50.27
70826;SHT31;58446;41.490;22.098;2023-09-12T03:06:43;20.14;50.87
70826;SHT31;58446;41.490;22.098;2023-09-12T03:09:09;20.24;50.95
70826;SHT31;58446;41.490;22.098;2023-09-12T03:11:36;20.38;50.90
70826;SHT31;58446;41.490;22.098;2023-09-12T03:14:02;20.33;51.07
70826;SHT31;58446;41.490;22.098;2023-09-12T03:16:28;20.30;51.30
70826;SHT31;58446;41.490;22.098;2023-09-12T03:18:53;20.37;51.17
70826;SHT31;58446;41.490;22.098;2023-09-12T03:21:19;20.45;51.15
70826;SHT31;58446;41.490;22.098;2023-09-12T03:23:44;20.38;51.25
70826;SHT31;58446;41.490;22.098;2023-09-12T03:26:10;20.30;51.14
70826;SHT31;58446;41.490;22.098;2023-09-12T03:28:36;20.06;51.46
70826;SHT31;58446;41.490;22.098;2023-09-12T03:31:14;19.97;51.40
70826;SHT31;58446;41.490;22.098;2023-09-12T03:33:40;19.92;51.57
70826;SHT31;58446;41.490;22.098;2023-09-12T03:36:07;20.09;50.91
70826;SHT31;58446;41.490;22.098;2023-09-12T03:38:34;20.05;51.14
70826;SHT31;58446;41.490;22.098;2023-09-12T03:41:00;20.14;51.03
70826;SHT31;58446;41.490;22.098;2023-09-12T03:43:25;20.24;50.56
70826;SHT31;58446;41.490;22.098;2023-09-12T03:45:51;20.23;50.57
70826;SHT31;58446;41.490;22.098;2023-09-12T03:48:17;20.33;50.49
70826;SHT31;58446;41.490;22.098;2023-09-12T03:50:43;20.23;50.77
70826;SHT31;58446;41.490;22.098;2023-09-12T03:53:10;20.19;50.84
70826;SHT31;58446;41.490;22.098;2023-09-12T03:55:36;20.07;50.99
70826;SHT31;58446;41.490;22.098;2023-09-12T03:58:01;20.03;51.10
70826;SHT31;58446;41.490;22.098;2023-09-12T04:00:27;19.63;51.97
70826;SHT31;58446;41.490;22.098;2023-09-12T04:02:53;19.66;52.11
70826;SHT31;58446;41.490;22.098;2023-09-12T04:05:18;19.87;51.67
70826;SHT31;58446;41.490;22.098;2023-09-12T04:07:44;19.99;51.72
70826;SHT31;58446;41.490;22.098;2023-09-12T04:10:10;19.89;51.83
70826;SHT31;58446;41.490;22.098;2023-09-12T04:12:35;20.03;51.44
70826;SHT31;58446;41.490;22.098;2023-09-12T04:15:01;20.05;51.32
70826;SHT31;58446;41.490;22.098;2023-09-12T04:17:27;19.99;51.40
70826;SHT31;58446;41.490;22.098;2023-09-12T04:19:52;19.86;51.59
70826;SHT31;58446;41.490;22.098;2023-09-12T04:22:18;19.92;51.47
70826;SHT31;58446;41.490;22.098;2023-09-12T04:24:44;19.93;51.32
70826;SHT31;58446;41.490;22.098;2023-09-12T04:27:09;19.96;51.17
70826;SHT31;58446;41.490;22.098;2023-09-12T04:29:35;20.05;51.03
70826;SHT31;58446;41.490;22.098;2023-09-12T04:32:04;20.48;50.13
70826;SHT31;58446;41.490;22.098;2023-09-12T04:34:30;20.60;49.84
70826;SHT31;58446;41.490;22.098;2023-09-12T04:36:56;20.85;49.21
70826;SHT31;58446;41.490;22.098;2023-09-12T04:39:22;21.12;48.53
70826;SHT31;58446;41.490;22.098;2023-09-12T04:41:48;21.36;47.87
70826;SHT31;58446;41.490;22.098;2023-09-12T04:44:14;22.02;46.53
70826;SHT31;58446;41.490;22.098;2023-09-12T04:46:39;21.81;46.95
70826;SHT31;58446;41.490;22.098;2023-09-12T04:49:05;22.01;46.71
70826;SHT31;58446;41.490;22.098;2023-09-12T04:51:31;22.75;45.28
70826;SHT31;58446;41.490;22.098;2023-09-12T04:53:56;22.90;44.29
70826;SHT31;58446;41.490;22.098;2023-09-12T04:56:22;22.45;45.02
70826;SHT31;58446;41.490;22.098;2023-09-12T04:58:50;22.49;44.91
70826;SHT31;58446;41.490;22.098;2023-09-12T05:01:16;22.37;45.38
70826;SHT31;58446;41.490;22.098;2023-09-12T05:03:43;22.56;45.28
70826;SHT31;58446;41.490;22.098;2023-09-12T05:06:09;22.69;45.24
70826;SHT31;58446;41.490;22.098;2023-09-12T05:08:36;23.07;44.40
70826;SHT31;58446;41.490;22.098;2023-09-12T05:11:02;23.13;44.30
70826;SHT31;58446;41.490;22.098;2023-09-12T05:13:28;23.13;43.92
70826;SHT31;58446;41.490;22.098;2023-09-12T05:15:54;23.17;44.76
70826;SHT31;58446;41.490;22.098;2023-09-12T05:18:21;23.31;44.42
70826;SHT31;58446;41.490;22.098;2023-09-12T05:20:46;23.53;43.31
70826;SHT31;58446;41.490;22.098;2023-09-12T05:23:12;23.43;43.68
70826;SHT31;58446;41.490;22.098;2023-09-12T05:25:38;23.04;44.86
70826;SHT31;58446;41.490;22.098;2023-09-12T05:28:04;23.14;44.44
70826;SHT31;58446;41.490;22.098;2023-09-12T05:30:30;23.19;44.65
70826;SHT31;58446;41.490;22.098;2023-09-12T05:32:56;22.96;44.64
70826;SHT31;58446;41.490;22.098;2023-09-12T05:35:21;23.13;44.09
70826;SHT31;58446;41.490;22.098;2023-09-12T05:37:47;22.93;45.12
70826;SHT31;58446;41.490;22.098;2023-09-12T05:40:13;22.92;44.92
70826;SHT31;58446;41.490;22.098;2023-09-12T05:42:39;22.99;45.37
70826;SHT31;58446;41.490;22.098;2023-09-12T05:45:06;22.96;46.49
70826;SHT31;58446;41.490;22.098;2023-09-12T05:47:32;22.97;46.57
70826;SHT31;58446;41.490;22.098;2023-09-12T05:49:58;23.30;46.06
70826;SHT31;58446;41.490;22.098;2023-09-12T05:52:25;23.33;46.04
70826;SHT31;58446;41.490;22.098;2023-09-12T05:54:50;23.77;45.61
70826;SHT31;58446;41.490;22.098;2023-09-12T05:57:16;23.61;45.49
70826;SHT31;58446;41.490;22.098;2023-09-12T05:59:42;23.75;45.45
70826;SHT31;58446;41.490;22.098;2023-09-12T06:02:07;23.84;45.66
70826;SHT31;58446;41.490;22.098;2023-09-12T06:04:36;23.59;45.82
70826;SHT31;58446;41.490;22.098;2023-09-12T06:07:02;24.05;45.60
70826;SHT31;58446;41.490;22.098;2023-09-12T06:09:29;24.10;45.67
70826;SHT31;58446;41.490;22.098;2023-09-12T06:11:54;24.37;45.17
70826;SHT31;58446;41.490;22.098;2023-09-12T06:14:20;24.46;45.35
70826;SHT31;58446;41.490;22.098;2023-09-12T06:16:46;24.36;46.10
70826;SHT31;58446;41.490;22.098;2023-09-12T06:19:12;24.39;45.98
70826;SHT31;58446;41.490;22.098;2023-09-12T06:21:40;24.59;45.66
70826;SHT31;58446;41.490;22.098;2023-09-12T06:24:14;24.57;44.67
70826;SHT31;58446;41.490;22.098;2023-09-12T06:26:40;24.28;44.59
70826;SHT31;58446;41.490;22.098;2023-09-12T06:29:06;24.63;44.41
70826;SHT31;58446;41.490;22.098;2023-09-12T06:31:33;24.59;44.00
70826;SHT31;58446;41.490;22.098;2023-09-12T06:33:58;24.92;43.89
70826;SHT31;58446;41.490;22.098;2023-09-12T06:36:25;24.87;42.03
70826;SHT31;58446;41.490;22.098;2023-09-12T06:38:51;25.17;42.68
70826;SHT31;58446;41.490;22.098;2023-09-12T06:41:20;25.34;43.06
70826;SHT31;58446;41.490;22.098;2023-09-12T06:43:46;25.48;40.23
70826;SHT31;58446;41.490;22.098;2023-09-12T06:46:12;25.58;41.41
70826;SHT31;58446;41.490;22.098;2023-09-12T06:48:37;25.80;41.29
70826;SHT31;58446;41.490;22.098;2023-09-12T06:51:05;25.73;41.03
70826;SHT31;58446;41.490;22.098;2023-09-12T06:53:31;26.01;40.90
70826;SHT31;58446;41.490;22.098;2023-09-12T06:55:57;25.99;39.23
70826;SHT31;58446;41.490;22.098;2023-09-12T06:58:24;26.16;38.95
70826;SHT31;58446;41.490;22.098;2023-09-12T07:00:50;26.07;39.02
70826;SHT31;58446;41.490;22.098;2023-09-12T07:03:16;25.92;38.66
70826;SHT31;58446;41.490;22.098;2023-09-12T07:05:42;25.82;40.55
70826;SHT31;58446;41.490;22.098;2023-09-12T07:08:08;26.01;40.31
70826;SHT31;58446;41.490;22.098;2023-09-12T07:10:34;26.03;40.92
70826;SHT31;58446;41.490;22.098;2023-09-12T07:13:01;26.04;41.40
70826;SHT31;58446;41.490;22.098;2023-09-12T07:15:26;26.37;40.31
70826;SHT31;58446;41.490;22.098;2023-09-12T07:17:52;26.37;40.68
70826;SHT31;58446;41.490;22.098;2023-09-12T07:20:18;26.64;40.79
70826;SHT31;58446;41.490;22.098;2023-09-12T07:22:46;26.72;40.42
70826;SHT31;58446;41.490;22.098;2023-09-12T07:25:13;26.69;40.10
70826;SHT31;58446;41.490;22.098;2023-09-12T07:27:39;27.02;39.77
70826;SHT31;58446;41.490;22.098;2023-09-12T07:30:06;27.05;39.22
70826;SHT31;58446;41.490;22.098;2023-09-12T07:32:32;26.89;39.35
70826;SHT31;58446;41.490;22.098;2023-09-12T07:34:58;26.87;38.82
70826;SHT31;58446;41.490;22.098;2023-09-12T07:37:24;26.89;39.27
70826;SHT31;58446;41.490;22.098;2023-09-12T07:39:49;26.78;39.03
70826;SHT31;58446;41.490;22.098;2023-09-12T07:42:15;26.96;39.54
70826;SHT31;58446;41.490;22.098;2023-09-12T07:44:41;27.15;38.99
70826;SHT31;58446;41.490;22.098;2023-09-12T07:47:07;27.18;39.44
70826;SHT31;58446;41.490;22.098;2023-09-12T07:49:33;27.30;38.50
70826;SHT31;58446;41.490;22.098;2023-09-12T07:51:58;27.42;39.07
70826;SHT31;58446;41.490;22.098;2023-09-12T07:54:24;27.50;38.17
70826;SHT31;58446;41.490;22.098;2023-09-12T07:56:49;27.42;39.16
70826;SHT31;58446;41.490;22.098;2023-09-12T07:59:15;27.57;38.55
70826;SHT31;58446;41.490;22.098;2023-09-12T08:01:41;27.78;38.52
70826;SHT31;58446;41.490;22.098;2023-09-12T08:04:06;27.91;39.47
70826;SHT31;58446;41.490;22.098;2023-09-12T08:06:32;27.63;38.28
70826;SHT31;58446;41.490;22.098;2023-09-12T08:08:58;27.84;38.96
70826;SHT31;58446;41.490;22.098;2023-09-12T08:11:24;28.05;39.20
70826;SHT31;58446;41.490;22.098;2023-09-12T08:13:50;28.04;37.82
70826;SHT31;58446;41.490;22.098;2023-09-12T08:16:16;28.18;39.03
70826;SHT31;58446;41.490;22.098;2023-09-12T08:18:41;28.35;38.82
70826;SHT31;58446;41.490;22.098;2023-09-12T08:21:07;28.37;39.43
70826;SHT31;58446;41.490;22.098;2023-09-12T08:23:33;28.62;39.53
70826;SHT31;58446;41.490;22.098;2023-09-12T08:25:59;28.70;39.90
70826;SHT31;58446;41.490;22.098;2023-09-12T08:28:25;28.58;38.81
70826;SHT31;58446;41.490;22.098;2023-09-12T08:30:51;28.58;39.65
70826;SHT31;58446;41.490;22.098;2023-09-12T08:33:16;28.75;39.11
70826;SHT31;58446;41.490;22.098;2023-09-12T08:35:42;28.89;38.77
70826;SHT31;58446;41.490;22.098;2023-09-12T08:38:08;28.75;37.72
70826;SHT31;58446;41.490;22.098;2023-09-12T08:40:34;28.38;38.56
70826;SHT31;58446;41.490;22.098;2023-09-12T08:43:01;28.65;39.04
70826;SHT31;58446;41.490;22.098;2023-09-12T08:45:29;28.75;38.71
70826;SHT31;58446;41.490;22.098;2023-09-12T08:47:58;28.95;38.92
70826;SHT31;58446;41.490;22.098;2023-09-12T08:50:25;28.97;39.00
70826;SHT31;58446;41.490;22.098;2023-09-12T08:52:54;29.04;39.17
70826;SHT31;58446;41.490;22.098;2023-09-12T08:55:19;28.96;39.22
70826;SHT31;58446;41.490;22.098;2023-09-12T08:57:49;29.06;39.35
70826;SHT31;58446;41.490;22.098;2023-09-12T09:00:15;29.27;39.28
70826;SHT31;58446;41.490;22.098;2023-09-12T09:02:42;29.30;38.12
70826;SHT31;58446;41.490;22.098;2023-09-12T09:05:09;29.43;39.48
70826;SHT31;58446;41.490;22.098;2023-09-12T09:07:40;29.53;37.87
70826;SHT31;58446;41.490;22.098;2023-09-12T09:10:07;29.57;38.43
70826;SHT31;58446;41.490;22.098;2023-09-12T09:12:34;29.64;38.25
70826;SHT31;58446;41.490;22.098;2023-09-12T09:15:23;29.88;37.09
70826;SHT31;58446;41.490;22.098;2023-09-12T09:17:51;29.57;36.84
70826;SHT31;58446;41.490;22.098;2023-09-12T09:20:31;29.51;37.12
70826;SHT31;58446;41.490;22.098;2023-09-12T09:23:01;29.69;36.21
70826;SHT31;58446;41.490;22.098;2023-09-12T09:25:34;29.57;37.09
70826;SHT31;58446;41.490;22.098;2023-09-12T09:28:15;29.77;35.90
70826;SHT31;58446;41.490;22.098;2023-09-12T09:30:43;29.72;35.89
70826;SHT31;58446;41.490;22.098;2023-09-12T09:33:10;29.78;35.22
70826;SHT31;58446;41.490;22.098;2023-09-12T09:35:35;29.88;35.28
70826;SHT31;58446;41.490;22.098;2023-09-12T09:38:03;30.01;35.73
70826;SHT31;58446;41.490;22.098;2023-09-12T09:40:29;29.77;35.74
70826;SHT31;58446;41.490;22.098;2023-09-12T09:43:02;29.84;34.28
70826;SHT31;58446;41.490;22.098;2023-09-12T09:45:29;29.78;35.41
70826;SHT31;58446;41.490;22.098;2023-09-12T09:48:05;29.86;35.59
70826;SHT31;58446;41.490;22.098;2023-09-12T09:50:34;30.01;34.32
70826;SHT31;58446;41.490;22.098;2023-09-12T09:53:04;30.06;34.88
70826;SHT31;58446;41.490;22.098;2023-09-12T09:55:33;29.99;34.80
70826;SHT31;58446;41.490;22.098;2023-09-12T09:57:59;29.33;36.27
70826;SHT31;58446;41.490;22.098;2023-09-12T10:00:25;29.64;35.97
70826;SHT31;58446;41.490;22.098;2023-09-12T10:02:53;29.81;35.52
70826;SHT31;58446;41.490;22.098;2023-09-12T10:05:20;29.86;35.25
70826;SHT31;58446;41.490;22.098;2023-09-12T10:07:49;30.06;34.91
70826;SHT31;58446;41.490;22.098;2023-09-12T10:10:17;29.89;34.50
70826;SHT31;58446;41.490;22.098;2023-09-12T10:12:50;30.05;34.75
70826;SHT31;58446;41.490;22.098;2023-09-12T10:15:19;30.15;33.81
70826;SHT31;58446;41.490;22.098;2023-09-12T10:17:47;30.18;32.53
70826;SHT31;58446;41.490;22.098;2023-09-12T10:20:16;29.92;32.58
70826;SHT31;58446;41.490;22.098;2023-09-12T10:23:06;30.04;33.18
70826;SHT31;58446;41.490;22.098;2023-09-12T10:25:36;30.26;32.33
70826;SHT31;58446;41.490;22.098;2023-09-12T10:28:05;30.29;30.73
70826;SHT31;58446;41.490;22.098;2023-09-12T10:30:32;30.15;31.81
70826;SHT31;58446;41.490;22.098;2023-09-12T10:33:00;30.09;31.85
70826;SHT31;58446;41.490;22.098;2023-09-12T10:35:26;29.99;32.08
70826;SHT31;58446;41.490;22.098;2023-09-12T10:37:54;29.92;32.41
70826;SHT31;58446;41.490;22.098;2023-09-12T10:40:22;29.88;31.88
70826;SHT31;58446;41.490;22.098;2023-09-12T10:42:49;29.95;30.97
70826;SHT31;58446;41.490;22.098;2023-09-12T10:45:16;30.01;31.28
70826;SHT31;58446;41.490;22.098;2023-09-12T10:47:42;30.01;31.42
70826;SHT31;58446;41.490;22.098;2023-09-12T10:50:09;30.25;32.21
70826;SHT31;58446;41.490;22.098;2023-09-12T10:52:34;30.50;33.42
70826;SHT31;58446;41.490;22.098;2023-09-12T10:55:05;30.67;31.10
70826;SHT31;58446;41.490;22.098;2023-09-12T10:57:31;30.74;31.58
70826;SHT31;58446;41.490;22.098;2023-09-12T11:02:42;31.05;31.13
70826;SHT31;58446;41.490;22.098;2023-09-12T11:07:59;31.22;29.81
70826;SHT31;58446;41.490;22.098;2023-09-12T11:10:27;31.01;30.69
70826;SHT31;58446;41.490;22.098;2023-09-12T11:12:56;30.81;30.78
70826;SHT31;58446;41.490;22.098;2023-09-12T11:15:24;30.49;30.43
70826;SHT31;58446;41.490;22.098;2023-09-12T11:18:11;30.41;29.68
70826;SHT31;58446;41.490;22.098;2023-09-12T11:20:50;30.19;30.13
70826;SHT31;58446;41.490;22.098;2023-09-12T11:23:20;29.71;31.79
70826;SHT31;58446;41.490;22.098;2023-09-12T11:25:46;30.04;33.45
70826;SHT31;58446;41.490;22.098;2023-09-12T11:28:12;30.39;32.39
70826;SHT31;58446;41.490;22.098;2023-09-12T11:30:55;30.74;30.73
70826;SHT31;58446;41.490;22.098;2023-09-12T11:33:23;30.95;29.76
70826;SHT31;58446;41.490;22.098;2023-09-12T11:35:52;31.14;29.78
70826;SHT31;58446;41.490;22.098;2023-09-12T11:38:29;31.12;29.61
70826;SHT31;58446;41.490;22.098;2023-09-12T11:40:55;31.12;30.14
70826;SHT31;58446;41.490;22.098;2023-09-12T11:43:25;31.28;28.70
70826;SHT31;58446;41.490;22.098;2023-09-12T11:45:52;31.46;28.78
70826;SHT31;58446;41.490;22.098;2023-09-12T11:48:19;31.50;28.76
70826;SHT31;58446;41.490;22.098;2023-09-12T11:50:51;31.46;29.12
70826;SHT31;58446;41.490;22.098;2023-09-12T11:53:20;31.25;29.76
70826;SHT31;58446;41.490;22.098;2023-09-12T11:55:47;31.35;28.27
70826;SHT31;58446;41.490;22.098;2023-09-12T11:58:16;31.21;29.38
70826;SHT31;58446;41.490;22.098;2023-09-12T12:00:49;31.02;28.78
70826;SHT31;58446;41.490;22.098;2023-09-12T12:03:15;30.76;29.44
70826;SHT31;58446;41.490;22.098;2023-09-12T12:05:42;30.66;29.26
70826;SHT31;58446;41.490;22.098;2023-09-12T12:08:09;30.52;29.60
70826;SHT31;58446;41.490;22.098;2023-09-12T12:10:35;30.46;29.45
70826;SHT31;58446;41.490;22.098;2023-09-12T12:13:03;30.50;29.38
70826;SHT31;58446;41.490;22.098;2023-09-12T12:15:29;30.74;27.70
70826;SHT31;58446;41.490;22.098;2023-09-12T12:17:55;30.84;26.95
70826;SHT31;58446;41.490;22.098;2023-09-12T12:20:21;30.97;27.04
70826;SHT31;58446;41.490;22.098;2023-09-12T12:22:47;31.15;27.33
70826;SHT31;58446;41.490;22.098;2023-09-12T12:25:14;31.18;27.16
70826;SHT31;58446;41.490;22.098;2023-09-12T12:27:41;30.97;28.27
70826;SHT31;58446;41.490;22.098;2023-09-12T12:30:12;31.04;28.47
70826;SHT31;58446;41.490;22.098;2023-09-12T12:32:42;31.07;30.70
70826;SHT31;58446;41.490;22.098;2023-09-12T12:35:09;31.05;28.08
70826;SHT31;58446;41.490;22.098;2023-09-12T12:37:36;30.70;29.28
70826;SHT31;58446;41.490;22.098;2023-09-12T12:40:03;30.91;29.04
70826;SHT31;58446;41.490;22.098;2023-09-12T12:42:37;31.17;27.96
70826;SHT31;58446;41.490;22.098;2023-09-12T12:45:14;31.36;27.79
70826;SHT31;58446;41.490;22.098;2023-09-12T12:47:41;31.24;27.87
70826;SHT31;58446;41.490;22.098;2023-09-12T12:50:16;31.08;30.14
70826;SHT31;58446;41.490;22.098;2023-09-12T12:52:47;31.25;28.26
70826;SHT31;58446;41.490;22.098;2023-09-12T12:55:14;31.28;28.03
70826;SHT31;58446;41.490;22.098;2023-09-12T12:57:42;31.31;27.58
70826;SHT31;58446;41.490;22.098;2023-09-12T13:00:10;31.45;27.52
70826;SHT31;58446;41.490;22.098;2023-09-12T13:02:40;31.36;26.89
70826;SHT31;58446;41.490;22.098;2023-09-12T13:05:38;31.38;28.35
70826;SHT31;58446;41.490;22.098;2023-09-12T13:08:06;31.55;27.05
70826;SHT31;58446;41.490;22.098;2023-09-12T13:10:31;31.69;27.41
70826;SHT31;58446;41.490;22.098;2023-09-12T13:12:57;31.77;27.18
70826;SHT31;58446;41.490;22.098;2023-09-12T13:15:23;31.87;27.79
70826;SHT31;58446;41.490;22.098;2023-09-12T13:17:48;31.93;27.76
70826;SHT31;58446;41.490;22.098;2023-09-12T13:20:14;31.98;27.05
70826;SHT31;58446;41.490;22.098;2023-09-12T13:22:39;32.02;26.98
70826;SHT31;58446;41.490;22.098;2023-09-12T13:25:06;31.73;27.09
70826;SHT31;58446;41.490;22.098;2023-09-12T13:27:32;31.63;27.55
70826;SHT31;58446;41.490;22.098;2023-09-12T13:29:58;31.75;26.84
70826;SHT31;58446;41.490;22.098;2023-09-12T13:32:24;31.66;27.28
70826;SHT31;58446;41.490;22.098;2023-09-12T13:34:49;31.66;27.41
70826;SHT31;58446;41.490;22.098;2023-09-12T13:37:15;31.69;27.89
70826;SHT31;58446;41.490;22.098;2023-09-12T13:39:42;31.82;27.92
70826;SHT31;58446;41.490;22.098;2023-09-12T13:42:14;31.83;28.86
70826;SHT31;58446;41.490;22.098;2023-09-12T13:44:44;31.89;28.11
70826;SHT31;58446;41.490;22.098;2023-09-12T13:47:10;31.87;27.42
70826;SHT31;58446;41.490;22.098;2023-09-12T13:49:35;32.02;26.66
70826;SHT31;58446;41.490;22.098;2023-09-12T13:52:02;32.07;26.05
70826;SHT31;58446;41.490;22.098;2023-09-12T13:54:27;32.20;26.10
70826;SHT31;58446;41.490;22.098;2023-09-12T13:56:53;32.26;26.34
70826;SHT31;58446;41.490;22.098;2023-09-12T13:59:19;32.31;26.09
70826;SHT31;58446;41.490;22.098;2023-09-12T14:01:46;32.24;25.82
70826;SHT31;58446;41.490;22.098;2023-09-12T14:04:12;32.19;26.39
70826;SHT31;58446;41.490;22.098;2023-09-12T14:06:38;32.21;27.17
70826;SHT31;58446;41.490;22.098;2023-09-12T14:09:05;32.14;26.13
70826;SHT31;58446;41.490;22.098;2023-09-12T14:11:30;32.06;26.20
70826;SHT31;58446;41.490;22.098;2023-09-12T14:13:56;31.96;26.42
70826;SHT31;58446;41.490;22.098;2023-09-12T14:16:22;31.93;26.67
70826;SHT31;58446;41.490;22.098;2023-09-12T14:18:47;31.93;26.89
70826;SHT31;58446;41.490;22.098;2023-09-12T14:21:13;32.05;27.03
70826;SHT31;58446;41.490;22.098;2023-09-12T14:23:38;32.07;26.98
70826;SHT31;58446;41.490;22.098;2023-09-12T14:26:04;32.07;27.28
70826;SHT31;58446;41.490;22.098;2023-09-12T14:28:30;32.09;27.21
70826;SHT31;58446;41.490;22.098;2023-09-12T14:30:57;31.98;26.40
70826;SHT31;58446;41.490;22.098;2023-09-12T14:33:23;31.96;26.87
70826;SHT31;58446;41.490;22.098;2023-09-12T14:35:49;31.90;27.38
70826;SHT31;58446;41.490;22.098;2023-09-12T14:38:14;31.98;26.17
70826;SHT31;58446;41.490;22.098;2023-09-12T14:40:40;31.97;25.91
70826;SHT31;58446;41.490;22.098;2023-09-12T14:43:06;31.94;25.42
70826;SHT31;58446;41.490;22.098;2023-09-12T14:45:33;32.02;24.99
70826;SHT31;58446;41.490;22.098;2023-09-12T14:47:59;32.02;24.79
70826;SHT31;58446;41.490;22.098;2023-09-12T14:50:24;31.97;24.74
70826;SHT31;58446;41.490;22.098;2023-09-12T14:52:54;32.02;25.00
70826;SHT31;58446;41.490;22.098;2023-09-12T14:55:20;31.96;25.27
70826;SHT31;58446;41.490;22.098;2023-09-12T14:57:45;32.00;25.77
70826;SHT31;58446;41.490;22.098;2023-09-12T15:00:11;31.92;24.67
70826;SHT31;58446;41.490;22.098;2023-09-12T15:02:37;31.86;25.08
70826;SHT31;58446;41.490;22.098;2023-09-12T15:05:03;31.89;24.51
70826;SHT31;58446;41.490;22.098;2023-09-12T15:07:29;31.87;26.45
70826;SHT31;58446;41.490;22.098;2023-09-12T15:09:56;31.86;26.22
70826;SHT31;58446;41.490;22.098;2023-09-12T15:12:22;31.73;27.23
70826;SHT31;58446;41.490;22.098;2023-09-12T15:14:47;31.67;27.48
70826;SHT31;58446;41.490;22.098;2023-09-12T15:17:15;31.66;27.14
70826;SHT31;58446;41.490;22.098;2023-09-12T15:19:40;31.67;27.13
70826;SHT31;58446;41.490;22.098;2023-09-12T15:22:06;31.62;28.03
70826;SHT31;58446;41.490;22.098;2023-09-12T15:24:31;31.59;27.96
70826;SHT31;58446;41.490;22.098;2023-09-12T15:26:57;31.55;28.27